createdAt,value
2023-05-22T00:17:19.687Z,31.45
2023-05-22T00:21:00.579Z,32.45
2023-05-22T00:24:01.310Z,33.28
2023-05-22T00:26:34.398Z,34.97
2023-05-22T00:29:01.836Z,39.90
2023-05-22T00:31:57.932Z,35.78
2023-05-22T00:35:01.974Z,37.00
2023-05-22T00:37:36.736Z,34.70
2023-05-22T00:43:47.013Z,35.63
2023-05-22T00:50:01.680Z,41.17
2023-05-22T00:55:31.263Z,40.22
2023-05-22T00:58:05.683Z,33.33
2023-05-22T01:01:29.461Z,35.78
2023-05-22T01:07:29.124Z,37.05
2023-05-22T01:10:02.372Z,34.58
2023-05-22T01:13:27.610Z,36.70
2023-05-22T01:17:02.746Z,39.40
2023-05-22T01:20:34.741Z,33.72
2023-05-22T01:24:02.434Z,35.80
2023-05-22T01:30:50.087Z,37.58
2023-05-22T01:37:02.128Z,34.85
2023-05-22T01:39:39.613Z,35.63
2023-05-22T01:42:21.949Z,46.03
2023-05-22T01:45:01.318Z,35.13
2023-05-22T01:47:43.484Z,35.80
2023-05-22T01:50:36.150Z,35.55
2023-05-22T01:53:57.214Z,33.90
2023-05-22T01:56:44.444Z,35.45
2023-05-22T01:59:48.187Z,39.97
2023-05-22T02:05:45.287Z,40.80
2023-05-22T02:08:31.172Z,34.75
2023-05-22T02:11:55.283Z,35.00
2023-05-22T02:15:08.241Z,40.50
2023-05-22T02:18:25.574Z,41.75
2023-05-22T02:21:21.168Z,44.40
2023-05-22T02:24:09.949Z,36.35
2023-05-22T02:26:57.053Z,40.65
2023-05-22T02:30:03.444Z,37.22
2023-05-22T02:32:44.004Z,45.38
2023-05-22T02:35:19.440Z,36.60
2023-05-22T02:38:02.765Z,38.33
2023-05-22T02:41:11.297Z,36.47
2023-05-22T02:47:02.716Z,36.78
2023-05-22T02:49:47.119Z,33.47
2023-05-22T02:52:55.170Z,41.60
2023-05-22T03:00:50.022Z,37.75
2023-05-22T03:03:40.370Z,35.90
2023-05-22T03:06:31.145Z,38.03
2023-05-22T03:10:01.592Z,44.63
2023-05-22T03:13:02.362Z,35.75
2023-05-22T03:16:02.784Z,37.88
2023-05-22T03:18:54.252Z,37.88
2023-05-22T03:22:01.252Z,40.72
2023-05-22T03:25:12.154Z,38.38
2023-05-22T03:27:45.537Z,44.88
2023-05-22T03:30:30.946Z,47.80
2023-05-22T03:33:20.659Z,48.03
2023-05-22T03:35:50.854Z,41.30
2023-05-22T03:38:35.689Z,39.40
2023-05-22T03:41:27.418Z,46.40
2023-05-22T03:56:02.807Z,49.22
2023-05-22T03:58:43.641Z,46.67
2023-05-22T04:04:47.247Z,49.45
2023-05-22T04:11:02.704Z,44.88
2023-05-22T04:16:41.119Z,38.90
2023-05-22T04:19:37.468Z,42.35
2023-05-22T04:22:28.350Z,47.90
2023-05-22T04:25:29.358Z,40.33
2023-05-22T04:28:11.625Z,39.65
2023-05-22T04:36:49.404Z,41.65
2023-05-22T04:39:40.105Z,41.38
2023-05-22T04:42:36.099Z,35.65
2023-05-22T04:45:20.779Z,41.22
2023-05-22T04:50:50.595Z,38.08
2023-05-22T04:59:29.495Z,43.03
2023-05-22T05:03:21.718Z,36.85
2023-05-22T05:10:05.094Z,30.67
2023-05-22T05:15:10.826Z,34.35
2023-05-22T05:24:19.836Z,27.95
2023-05-22T05:27:02.142Z,36.13
2023-05-22T05:30:52.918Z,30.77
2023-05-22T05:37:39.112Z,33.47
2023-05-22T05:40:50.198Z,27.25
2023-05-22T05:43:44.652Z,37.55
2023-05-22T05:46:38.267Z,27.75
2023-05-22T05:49:48.610Z,34.63
2023-05-22T05:53:12.830Z,30.55
2023-05-22T05:55:59.770Z,31.85
2023-05-22T05:58:36.068Z,30.17
2023-05-22T06:01:36.137Z,26.58
2023-05-22T06:04:30.186Z,26.55
2023-05-22T06:07:23.972Z,29.25
2023-05-22T06:10:48.987Z,30.92
2023-05-22T06:17:42.961Z,26.50
2023-05-22T06:20:35.874Z,28.52
2023-05-22T06:23:30.199Z,33.50
2023-05-22T06:29:25.459Z,29.55
2023-05-22T06:35:11.053Z,33.00
2023-05-22T06:38:46.047Z,24.52
2023-05-22T06:42:20.112Z,28.20
2023-05-22T06:45:39.827Z,24.52
2023-05-22T06:48:54.687Z,26.77
2023-05-22T06:51:41.177Z,27.30
2023-05-22T06:55:01.948Z,23.38
2023-05-22T06:57:56.590Z,20.23
2023-05-22T07:00:44.617Z,24.10
2023-05-22T07:08:01.570Z,35.47
2023-05-22T07:11:29.238Z,15.48
2023-05-22T07:14:44.968Z,16.17
2023-05-22T07:18:29.542Z,18.80
2023-05-22T07:21:35.466Z,20.38
2023-05-22T07:24:21.205Z,25.33
2023-05-22T07:27:02.557Z,17.98
2023-05-22T07:29:42.637Z,13.70
2023-05-22T07:32:17.303Z,15.15
2023-05-22T07:35:11.483Z,18.20
2023-05-22T07:37:48.330Z,12.90
2023-05-22T07:40:34.123Z,14.35
2023-05-22T07:43:02.576Z,11.25
2023-05-22T07:45:40.800Z,15.93
2023-05-22T07:48:17.813Z,16.48
2023-05-22T07:51:31.634Z,11.68
2023-05-22T07:54:34.617Z,14.75
2023-05-22T07:57:17.948Z,13.13
2023-05-22T07:59:47.852Z,15.38
2023-05-22T08:02:16.338Z,13.35
2023-05-22T08:04:44.774Z,14.10
2023-05-22T08:07:26.862Z,17.48
2023-05-22T08:09:56.855Z,18.02
2023-05-22T08:12:24.207Z,12.63
2023-05-22T08:14:59.047Z,19.27
2023-05-22T08:17:27.016Z,11.35
2023-05-22T08:19:57.149Z,13.52
2023-05-22T08:22:38.731Z,11.52
2023-05-22T08:25:09.977Z,10.27
2023-05-22T08:27:53.438Z,10.57
2023-05-22T08:30:58.716Z,12.63
2023-05-22T08:34:02.199Z,13.43
2023-05-22T08:37:10.891Z,14.00
2023-05-22T08:39:38.177Z,10.90
2023-05-22T08:42:28.671Z,11.38
2023-05-22T08:45:17.262Z,11.65
2023-05-22T08:47:57.870Z,11.57
2023-05-22T08:50:53.779Z,9.90
2023-05-22T08:53:36.766Z,10.98
2023-05-22T08:56:11.838Z,12.30
2023-05-22T08:58:50.564Z,14.73
2023-05-22T09:01:32.626Z,15.27
2023-05-22T09:04:02.114Z,12.10
2023-05-22T09:06:33.068Z,13.75
2023-05-22T09:09:07.866Z,17.80
2023-05-22T09:11:35.651Z,10.97
2023-05-22T09:14:13.505Z,8.70
2023-05-22T09:17:11.494Z,10.07
2023-05-22T09:21:02.059Z,11.10
2023-05-22T09:23:54.675Z,9.45
2023-05-22T09:26:24.315Z,10.88
2023-05-22T09:29:00.140Z,9.45
2023-05-22T09:31:55.933Z,10.27
2023-05-22T09:35:32.662Z,8.85
2023-05-22T09:38:19.575Z,11.60
2023-05-22T09:41:10.123Z,14.70
2023-05-22T09:44:02.256Z,12.35
2023-05-22T09:46:44.260Z,11.85
2023-05-22T09:49:17.891Z,11.95
2023-05-22T09:51:51.055Z,15.40
2023-05-22T09:54:24.263Z,13.15
2023-05-22T09:57:01.044Z,12.77
2023-05-22T09:59:36.114Z,13.93
2023-05-22T10:02:11.592Z,13.85
2023-05-22T10:05:05.179Z,14.55
2023-05-22T10:08:52.924Z,10.90
2023-05-22T10:12:22.949Z,20.55
2023-05-22T10:15:07.711Z,12.88
2023-05-22T10:17:41.382Z,14.40
2023-05-22T10:20:16.792Z,17.63
2023-05-22T10:23:16.502Z,14.63
2023-05-22T10:26:08.988Z,13.73
2023-05-22T10:28:57.600Z,11.90
2023-05-22T10:31:52.939Z,10.95
2023-05-22T10:34:52.304Z,13.95
2023-05-22T10:37:48.383Z,10.70
2023-05-22T10:40:48.005Z,16.05
2023-05-22T10:43:52.917Z,16.00
2023-05-22T10:46:39.038Z,13.90
2023-05-22T10:49:40.749Z,11.43
2023-05-22T10:53:06.744Z,9.73
2023-05-22T10:55:49.806Z,10.75
2023-05-22T10:58:21.205Z,10.48
2023-05-22T11:01:07.669Z,19.35
2023-05-22T11:03:57.469Z,9.05
2023-05-22T11:06:49.208Z,12.60
2023-05-22T11:09:47.124Z,10.07
2023-05-22T11:12:29.122Z,11.90
2023-05-22T11:15:08.154Z,14.95
2023-05-22T11:17:59.874Z,16.00
2023-05-22T11:21:16.175Z,10.98
2023-05-22T11:24:31.093Z,20.98
2023-05-22T11:27:18.517Z,15.38
2023-05-22T11:33:12.376Z,7.85
2023-05-22T11:36:27.536Z,8.43
2023-05-22T11:39:40.296Z,17.15
2023-05-22T11:42:45.935Z,13.75
2023-05-22T11:45:28.322Z,11.88
2023-05-22T11:48:43.456Z,10.52
2023-05-22T11:52:16.083Z,12.82
2023-05-22T11:55:19.076Z,8.77
2023-05-22T11:57:48.831Z,12.32
2023-05-22T12:00:19.231Z,9.30
2023-05-22T12:02:48.008Z,9.65
2023-05-22T12:05:23.487Z,9.18
2023-05-22T12:08:16.647Z,19.52
2023-05-22T12:11:24.880Z,13.32
2023-05-22T12:14:21.437Z,11.65
2023-05-22T12:16:53.276Z,13.20
2023-05-22T12:22:26.697Z,12.60
2023-05-22T12:24:57.737Z,12.35
2023-05-22T12:27:40.154Z,12.43
2023-05-22T12:30:30.753Z,12.15
2023-05-22T12:33:19.625Z,9.48
2023-05-22T12:35:53.800Z,13.18
2023-05-22T12:38:22.773Z,15.05
2023-05-22T12:41:26.271Z,10.27
2023-05-22T12:44:41.355Z,11.60
2023-05-22T12:47:42.980Z,17.60
2023-05-22T12:51:18.563Z,10.25
2023-05-22T12:54:02.814Z,16.33
2023-05-22T12:56:39.641Z,9.77
2023-05-22T12:59:19.409Z,23.15
2023-05-22T13:01:57.339Z,14.23
2023-05-22T13:08:18.345Z,14.20
2023-05-22T13:12:00.570Z,11.93
2023-05-22T13:14:45.032Z,13.27
2023-05-22T13:17:17.792Z,12.05
2023-05-22T13:19:45.198Z,17.77
2023-05-22T13:22:12.656Z,10.90
2023-05-22T13:24:40.157Z,10.35
2023-05-22T13:27:07.452Z,14.32
2023-05-22T13:29:55.077Z,11.75
2023-05-22T13:32:41.683Z,15.27
2023-05-22T13:35:09.394Z,11.70
2023-05-22T13:37:58.930Z,9.35
2023-05-22T13:40:59.828Z,12.73
2023-05-22T13:44:00.044Z,11.98
2023-05-22T13:46:27.255Z,10.15
2023-05-22T13:48:54.767Z,9.45
2023-05-22T13:51:40.095Z,21.77
2023-05-22T13:54:42.452Z,9.23
2023-05-22T13:57:25.001Z,22.13
2023-05-22T13:59:54.491Z,12.52
2023-05-22T14:02:26.670Z,9.07
2023-05-22T14:04:57.100Z,14.88
2023-05-22T14:07:24.818Z,9.02
2023-05-22T14:09:53.441Z,8.75
2023-05-22T14:12:26.824Z,11.45
2023-05-22T14:14:54.052Z,13.93
2023-05-22T14:17:21.191Z,20.75
2023-05-22T14:19:50.796Z,12.70
2023-05-22T14:22:38.497Z,11.13
2023-05-22T14:25:43.157Z,9.10
2023-05-22T14:28:22.981Z,10.65
2023-05-22T14:31:28.394Z,10.55
2023-05-22T14:34:22.890Z,10.70
2023-05-22T14:36:55.104Z,23.92
2023-05-22T14:40:01.032Z,13.52
2023-05-22T14:42:57.773Z,12.68
2023-05-22T14:45:52.814Z,15.65
2023-05-22T14:48:26.985Z,17.17
2023-05-22T14:51:01.260Z,8.63
2023-05-22T14:53:32.874Z,8.52
2023-05-22T14:56:00.209Z,11.93
2023-05-22T14:58:29.947Z,8.35
2023-05-22T15:00:57.887Z,9.23
2023-05-22T15:03:44.978Z,9.20
2023-05-22T15:06:46.007Z,8.95
2023-05-22T15:09:38.950Z,10.88
2023-05-22T15:12:07.127Z,12.93
2023-05-22T15:14:37.777Z,8.55
2023-05-22T15:17:09.689Z,10.40
2023-05-22T15:19:39.470Z,12.25
2023-05-22T15:22:25.653Z,9.80
2023-05-22T15:25:06.810Z,8.55
2023-05-22T15:27:38.300Z,11.82
2023-05-22T15:30:22.615Z,9.63
2023-05-22T15:32:56.344Z,11.10
2023-05-22T15:38:20.058Z,9.25
2023-05-22T15:42:02.290Z,14.68
2023-05-22T15:45:22.262Z,9.95
2023-05-22T15:48:33.451Z,12.52
2023-05-22T15:51:37.505Z,10.00
2023-05-22T15:54:23.894Z,11.40
2023-05-22T15:56:59.771Z,13.18
2023-05-22T16:02:31.412Z,10.25
2023-05-22T16:05:46.959Z,7.47
2023-05-22T16:08:41.394Z,9.73
2023-05-22T16:18:33.835Z,9.02
2023-05-22T16:22:44.231Z,10.98
2023-05-22T16:28:59.322Z,13.40
2023-05-22T16:31:50.515Z,13.82
2023-05-22T16:37:42.607Z,8.48
2023-05-22T16:40:53.552Z,9.52
2023-05-22T16:48:03.270Z,12.65
2023-05-22T16:51:12.594Z,11.10
2023-05-22T16:54:01.831Z,8.52
2023-05-22T16:57:02.974Z,9.38
2023-05-22T17:03:12.628Z,14.23
2023-05-22T17:12:31.627Z,9.57
2023-05-22T17:22:37.131Z,8.82
2023-05-22T17:25:40.486Z,7.82
2023-05-22T17:28:29.570Z,11.35
2023-05-22T17:31:23.280Z,10.63
2023-05-22T17:34:02.472Z,9.82
2023-05-22T17:37:00.510Z,9.95
2023-05-22T17:39:31.588Z,9.73
2023-05-22T17:43:00.813Z,16.73
2023-05-22T17:45:45.496Z,10.77
2023-05-22T17:48:49.630Z,11.07
2023-05-22T17:51:52.155Z,9.30
2023-05-22T17:54:23.002Z,9.57
2023-05-22T17:57:12.040Z,16.65
2023-05-22T18:03:44.580Z,15.18
2023-05-22T18:06:46.929Z,15.18
2023-05-22T18:09:34.309Z,12.75
2023-05-22T18:15:05.503Z,14.40
2023-05-22T18:18:03.149Z,13.07
2023-05-22T18:20:55.905Z,14.77
2023-05-22T18:30:36.699Z,11.63
2023-05-22T18:36:55.887Z,11.40
2023-05-22T18:43:55.075Z,13.20
2023-05-22T18:48:07.358Z,11.25
2023-05-22T18:55:12.618Z,17.67
2023-05-22T18:58:02.723Z,13.30
2023-05-22T19:06:01.984Z,22.83
2023-05-22T19:13:23.259Z,21.00
2023-05-22T19:16:43.073Z,23.48
2023-05-22T19:24:01.734Z,16.52
2023-05-22T19:27:19.386Z,22.27
2023-05-22T19:30:54.391Z,17.27
2023-05-22T19:33:59.830Z,22.52
2023-05-22T19:37:14.135Z,20.00
2023-05-22T19:45:41.030Z,19.60
2023-05-22T19:49:03.518Z,22.95
2023-05-22T19:55:02.092Z,42.35
2023-05-22T20:13:39.203Z,25.10
2023-05-22T20:20:02.636Z,32.47
2023-05-22T20:32:33.763Z,21.98
2023-05-22T20:39:36.007Z,22.48
2023-05-22T20:43:34.327Z,20.10
2023-05-22T20:49:30.799Z,21.40
2023-05-22T20:52:33.901Z,20.80
2023-05-22T20:55:03.468Z,19.90
2023-05-22T20:59:02.836Z,28.35
2023-05-22T21:01:46.030Z,20.23
2023-05-22T21:04:21.450Z,33.67
2023-05-22T21:07:21.659Z,23.55
2023-05-22T21:10:43.985Z,24.80
2023-05-22T21:18:07.441Z,20.40
2023-05-22T21:20:50.644Z,19.80
2023-05-22T21:23:27.494Z,22.27
2023-05-22T21:26:23.616Z,22.02
2023-05-22T21:29:09.494Z,28.00
2023-05-22T21:32:11.331Z,22.95
2023-05-22T21:35:28.149Z,22.25
2023-05-22T21:38:02.513Z,21.92
2023-05-22T21:41:04.139Z,22.88
2023-05-22T21:47:16.537Z,28.10
2023-05-22T21:50:18.691Z,25.73
2023-05-22T21:57:25.535Z,33.95
2023-05-22T22:00:30.110Z,30.17
2023-05-22T22:03:38.953Z,30.13
2023-05-22T22:09:58.609Z,30.10
2023-05-22T22:13:03.664Z,32.10
2023-05-22T22:16:24.631Z,34.25
2023-05-22T22:22:14.589Z,34.28
2023-05-22T22:25:02.618Z,36.10
2023-05-22T22:27:35.874Z,40.92
2023-05-22T22:30:27.111Z,38.03
2023-05-22T22:33:03.949Z,35.15
2023-05-22T22:35:53.843Z,35.17
2023-05-22T22:41:53.710Z,43.35
2023-05-22T22:44:51.737Z,37.75
2023-05-22T22:47:33.947Z,46.25
2023-05-22T22:50:04.769Z,39.63
2023-05-22T22:53:01.152Z,41.17
2023-05-22T22:55:38.842Z,40.20
2023-05-22T22:58:15.837Z,35.38
2023-05-22T23:06:35.492Z,42.42
2023-05-22T23:09:29.787Z,42.38
2023-05-22T23:12:40.450Z,39.90
2023-05-22T23:15:47.539Z,40.28
2023-05-22T23:21:32.077Z,40.85
2023-05-22T23:27:00.349Z,42.78
2023-05-22T23:29:39.807Z,41.92
2023-05-22T23:32:33.821Z,51.22
2023-05-22T23:35:14.682Z,42.28
2023-05-22T23:38:43.938Z,49.75
2023-05-22T23:41:50.718Z,36.78
2023-05-22T23:44:41.220Z,39.67
2023-05-22T23:50:47.699Z,38.70
2023-05-22T23:57:00.612Z,36.42
2023-05-22T23:59:35.604Z,42.20
